This is the latest recevied weather packets stored in our database for station/object DO6MJ-1. If no packets are shown the sender has not sent any weather packets the latest 10 day(s).
| Time | Temp. | Humidity | Pressure | Rain* | Wind** | Luminosity | Snow |
|---|---|---|---|---|---|---|---|
| 1777929774 | 15° C | 84% | 1005.6 hPa | 0 mm | - | - | - |
| 1777928574 | 15.56° C | 83% | 1005.7 hPa | 0 mm | - | - | - |
| 1777927374 | 15.56° C | 82% | 1005.7 hPa | 0.51 mm | - | - | - |
| 1777926175 | 15.56° C | 80% | 1005.6 hPa | 0.51 mm | - | - | - |
| 1777924973 | 16.11° C | 79% | 1005.5 hPa | 0.51 mm | - | - | - |
| 1777923773 | 16.67° C | 76% | 1005.6 hPa | 0 mm | - | - | - |
| 1777922573 | 17.78° C | 72% | 1005.2 hPa | 0 mm | - | - | - |
| 1777921372 | 18.33° C | 66% | 1004.9 hPa | 0 mm | - | - | - |
| 1777920172 | 18.33° C | 65% | 1004.5 hPa | 0 mm | - | - | - |
| 1777918972 | 18.89° C | 63% | 1004.5 hPa | 0 mm | - | - | - |
| 1777917772 | 19.44° C | 62% | 1004.4 hPa | 0 mm | - | - | - |
| 1777916571 | 20° C | 60% | 1004.3 hPa | 0 mm | - | - | - |
| 1777915371 | 20.56° C | 58% | 1004.2 hPa | 0 mm | - | - | - |
| 1777914171 | 20.56° C | 57% | 1004.2 hPa | 0 mm | - | - | - |
| 1777912970 | 21.11° C | 57% | 1004.4 hPa | 0 mm | - | - | - |
| 1777911770 | 21.67° C | 57% | 1004.3 hPa | 0 mm | - | - | - |
| 1777910570 | 21.11° C | 56% | 1004.2 hPa | 0 mm | - | - | - |
| 1777909370 | 21.67° C | 55% | 1004.3 hPa | 0 mm | - | - | - |
| 1777908169 | 22.22° C | 53% | 1004.4 hPa | 0 mm | - | - | - |
| 1777906969 | 22.22° C | 53% | 1004.6 hPa | 0 mm | - | - | - |
| 1777905769 | 22.22° C | 54% | 1004.6 hPa | 0 mm | - | - | - |
| 1777904568 | 22.22° C | 56% | 1004.8 hPa | 0 mm | - | - | - |
| 1777903368 | 21.67° C | 60% | 1005 hPa | 0 mm | - | - | - |
| 1777902168 | 22.22° C | 56% | 1005.1 hPa | 0 mm | - | - | - |
| 1777900968 | 24.44° C | 55% | 1005 hPa | 0 mm | - | - | - |
* Rain latest hour (hover to see other rain measurements)
** Current wind speed in m/s (hover to see current wind gust speed)